sensor_id;sensor_type;location;lat;lon;timestamp;pressure;altitude;pressure_sealevel;temperature;humidity
82887;BME280;72660;51.258;-2.200;2023-10-19T00:00:01;97773.94;;;13.57;58.06
82887;BME280;72660;51.258;-2.200;2023-10-19T00:02:26;97769.02;;;13.58;57.86
82887;BME280;72660;51.258;-2.200;2023-10-19T00:04:51;97764.18;;;13.60;58.01
82887;BME280;72660;51.258;-2.200;2023-10-19T00:07:17;97761.61;;;13.79;57.41
82887;BME280;72660;51.258;-2.200;2023-10-19T00:09:42;97760.85;;;13.95;57.22
82887;BME280;72660;51.258;-2.200;2023-10-19T00:12:07;97759.14;;;13.69;58.23
82887;BME280;72660;51.258;-2.200;2023-10-19T00:14:33;97750.04;;;13.48;58.86
82887;BME280;72660;51.258;-2.200;2023-10-19T00:16:58;97746.93;;;13.72;59.36
82887;BME280;72660;51.258;-2.200;2023-10-19T00:19:23;97742.39;;;13.19;60.50
82887;BME280;72660;51.258;-2.200;2023-10-19T00:21:49;97742.26;;;13.25;60.04
82887;BME280;72660;51.258;-2.200;2023-10-19T00:24:14;97742.92;;;13.38;60.66
82887;BME280;72660;51.258;-2.200;2023-10-19T00:26:39;97745.64;;;14.12;59.20
82887;BME280;72660;51.258;-2.200;2023-10-19T00:29:04;97740.88;;;13.56;60.08
82887;BME280;72660;51.258;-2.200;2023-10-19T00:31:30;97738.83;;;14.26;59.71
82887;BME280;72660;51.258;-2.200;2023-10-19T00:33:55;97736.14;;;14.00;60.42
82887;BME280;72660;51.258;-2.200;2023-10-19T00:36:20;97735.51;;;14.26;58.82
82887;BME280;72660;51.258;-2.200;2023-10-19T00:38:46;97732.01;;;14.03;59.60
82887;BME280;72660;51.258;-2.200;2023-10-19T00:41:11;97729.49;;;14.27;59.48
82887;BME280;72660;51.258;-2.200;2023-10-19T00:43:37;97733.01;;;14.39;58.99
82887;BME280;72660;51.258;-2.200;2023-10-19T00:46:01;97730.78;;;14.22;59.70
82887;BME280;72660;51.258;-2.200;2023-10-19T00:48:27;97724.32;;;14.06;59.90
82887;BME280;72660;51.258;-2.200;2023-10-19T00:50:52;97726.21;;;14.25;59.68
82887;BME280;72660;51.258;-2.200;2023-10-19T00:53:18;97720.34;;;14.32;59.81
82887;BME280;72660;51.258;-2.200;2023-10-19T00:55:43;97721.67;;;14.44;59.62
82887;BME280;72660;51.258;-2.200;2023-10-19T00:58:08;97721.82;;;14.20;60.37
82887;BME280;72660;51.258;-2.200;2023-10-19T01:00:33;97717.64;;;14.63;59.86
82887;BME280;72660;51.258;-2.200;2023-10-19T01:02:59;97712.41;;;14.34;60.31
82887;BME280;72660;51.258;-2.200;2023-10-19T01:05:24;97717.49;;;14.56;59.71
82887;BME280;72660;51.258;-2.200;2023-10-19T01:07:49;97721.64;;;15.17;59.18
82887;BME280;72660;51.258;-2.200;2023-10-19T01:10:14;97717.45;;;15.04;59.45
82887;BME280;72660;51.258;-2.200;2023-10-19T01:12:40;97715.38;;;15.30;59.32
82887;BME280;72660;51.258;-2.200;2023-10-19T01:15:08;97706.28;;;15.32;59.17
82887;BME280;72660;51.258;-2.200;2023-10-19T01:17:31;97692.57;;;15.16;58.69
82887;BME280;72660;51.258;-2.200;2023-10-19T01:19:56;97705.36;;;15.15;58.30
82887;BME280;72660;51.258;-2.200;2023-10-19T01:22:21;97710.98;;;15.54;57.91
82887;BME280;72660;51.258;-2.200;2023-10-19T01:24:47;97712.14;;;15.49;58.17
82887;BME280;72660;51.258;-2.200;2023-10-19T01:27:12;97715.31;;;15.47;58.12
82887;BME280;72660;51.258;-2.200;2023-10-19T01:29:37;97714.91;;;15.60;58.01
82887;BME280;72660;51.258;-2.200;2023-10-19T01:32:02;97715.22;;;15.58;57.58
82887;BME280;72660;51.258;-2.200;2023-10-19T01:34:28;97719.03;;;15.84;57.57
82887;BME280;72660;51.258;-2.200;2023-10-19T01:36:53;97721.67;;;15.63;57.05
82887;BME280;72660;51.258;-2.200;2023-10-19T01:39:18;97719.85;;;15.70;57.40
82887;BME280;72660;51.258;-2.200;2023-10-19T01:41:43;97716.55;;;15.56;57.73
82887;BME280;72660;51.258;-2.200;2023-10-19T01:44:09;97713.84;;;16.16;56.59
82887;BME280;72660;51.258;-2.200;2023-10-19T01:46:35;97710.17;;;15.64;56.87
82887;BME280;72660;51.258;-2.200;2023-10-19T01:49:00;97707.19;;;15.52;57.46
82887;BME280;72660;51.258;-2.200;2023-10-19T01:51:26;97702.02;;;15.80;57.06
82887;BME280;72660;51.258;-2.200;2023-10-19T01:53:50;97694.62;;;15.61;57.02
82887;BME280;72660;51.258;-2.200;2023-10-19T01:56:16;97687.25;;;15.83;56.92
82887;BME280;72660;51.258;-2.200;2023-10-19T01:58:42;97688.96;;;15.04;58.87
82887;BME280;72660;51.258;-2.200;2023-10-19T02:01:06;97682.54;;;15.81;57.38
82887;BME280;72660;51.258;-2.200;2023-10-19T02:03:31;97676.67;;;15.77;57.54
82887;BME280;72660;51.258;-2.200;2023-10-19T02:05:58;97674.74;;;15.63;57.09
82887;BME280;72660;51.258;-2.200;2023-10-19T02:08:21;97666.66;;;16.09;56.60
82887;BME280;72660;51.258;-2.200;2023-10-19T02:10:47;97657.45;;;16.04;57.30
82887;BME280;72660;51.258;-2.200;2023-10-19T02:13:12;97649.85;;;16.13;56.55
82887;BME280;72660;51.258;-2.200;2023-10-19T02:15:37;97646.68;;;15.96;57.17
82887;BME280;72660;51.258;-2.200;2023-10-19T02:18:03;97639.51;;;16.32;56.86
82887;BME280;72660;51.258;-2.200;2023-10-19T02:20:28;97635.08;;;16.73;57.17
82887;BME280;72660;51.258;-2.200;2023-10-19T02:22:53;97632.63;;;16.35;57.31
82887;BME280;72660;51.258;-2.200;2023-10-19T02:25:18;97627.41;;;16.19;57.85
82887;BME280;72660;51.258;-2.200;2023-10-19T02:27:43;97622.73;;;16.49;57.94
82887;BME280;72660;51.258;-2.200;2023-10-19T02:30:10;97612.70;;;16.57;57.84
82887;BME280;72660;51.258;-2.200;2023-10-19T02:32:34;97613.93;;;16.48;58.01
82887;BME280;72660;51.258;-2.200;2023-10-19T02:34:59;97611.52;;;16.56;58.33
82887;BME280;72660;51.258;-2.200;2023-10-19T02:37:24;97609.95;;;15.62;59.47
82887;BME280;72660;51.258;-2.200;2023-10-19T02:39:50;97605.55;;;15.97;60.30
82887;BME280;72660;51.258;-2.200;2023-10-19T02:42:15;97601.53;;;16.35;59.46
82887;BME280;72660;51.258;-2.200;2023-10-19T02:44:41;97596.18;;;16.35;59.02
82887;BME280;72660;51.258;-2.200;2023-10-19T02:47:06;97593.56;;;16.71;58.87
82887;BME280;72660;51.258;-2.200;2023-10-19T02:49:32;97586.67;;;16.61;58.72
82887;BME280;72660;51.258;-2.200;2023-10-19T02:51:58;97587.25;;;16.75;58.42
82887;BME280;72660;51.258;-2.200;2023-10-19T02:54:24;97578.85;;;16.93;58.79
82887;BME280;72660;51.258;-2.200;2023-10-19T02:56:51;97575.95;;;16.56;58.92
82887;BME280;72660;51.258;-2.200;2023-10-19T02:59:14;97573.88;;;16.49;58.82
82887;BME280;72660;51.258;-2.200;2023-10-19T03:01:39;97565.12;;;16.82;58.46
82887;BME280;72660;51.258;-2.200;2023-10-19T03:04:05;97559.94;;;16.99;58.32
82887;BME280;72660;51.258;-2.200;2023-10-19T03:06:31;97553.49;;;16.88;57.90
82887;BME280;72660;51.258;-2.200;2023-10-19T03:08:55;97552.47;;;16.80;58.46
82887;BME280;72660;51.258;-2.200;2023-10-19T03:11:21;97544.23;;;17.02;58.20
82887;BME280;72660;51.258;-2.200;2023-10-19T03:13:47;97540.84;;;17.10;57.91
82887;BME280;72660;51.258;-2.200;2023-10-19T03:16:17;97538.00;;;16.88;58.52
82887;BME280;72660;51.258;-2.200;2023-10-19T03:18:38;97533.74;;;17.10;58.00
82887;BME280;72660;51.258;-2.200;2023-10-19T03:21:03;97528.72;;;16.77;58.90
82887;BME280;72660;51.258;-2.200;2023-10-19T03:23:28;97523.22;;;16.87;58.58
82887;BME280;72660;51.258;-2.200;2023-10-19T03:25:55;97516.44;;;16.68;58.17
82887;BME280;72660;51.258;-2.200;2023-10-19T03:28:19;97513.47;;;16.87;57.69
82887;BME280;72660;51.258;-2.200;2023-10-19T03:30:45;97512.34;;;17.10;57.69
82887;BME280;72660;51.258;-2.200;2023-10-19T03:33:10;97509.17;;;17.21;57.85
82887;BME280;72660;51.258;-2.200;2023-10-19T03:35:36;97502.69;;;17.05;57.78
82887;BME280;72660;51.258;-2.200;2023-10-19T03:38:00;97489.17;;;16.97;57.85
82887;BME280;72660;51.258;-2.200;2023-10-19T03:40:27;97491.21;;;16.71;58.42
82887;BME280;72660;51.258;-2.200;2023-10-19T03:42:51;97485.77;;;16.68;59.29
82887;BME280;72660;51.258;-2.200;2023-10-19T03:45:16;97482.14;;;16.45;60.53
82887;BME280;72660;51.258;-2.200;2023-10-19T03:47:43;97479.32;;;16.11;60.94
82887;BME280;72660;51.258;-2.200;2023-10-19T03:50:08;97475.22;;;16.36;60.02
82887;BME280;72660;51.258;-2.200;2023-10-19T03:52:35;97475.89;;;17.09;59.63
82887;BME280;72660;51.258;-2.200;2023-10-19T03:54:59;97473.74;;;16.33;60.40
82887;BME280;72660;51.258;-2.200;2023-10-19T03:57:23;97469.31;;;16.28;60.30
82887;BME280;72660;51.258;-2.200;2023-10-19T03:59:49;97461.04;;;15.74;61.46
82887;BME280;72660;51.258;-2.200;2023-10-19T04:02:14;97465.07;;;15.58;62.06
82887;BME280;72660;51.258;-2.200;2023-10-19T04:04:39;97468.92;;;16.30;60.58
82887;BME280;72660;51.258;-2.200;2023-10-19T04:07:07;97465.46;;;16.13;61.05
82887;BME280;72660;51.258;-2.200;2023-10-19T04:09:30;97472.39;;;16.36;60.61
82887;BME280;72660;51.258;-2.200;2023-10-19T04:11:55;97479.85;;;16.37;60.78
82887;BME280;72660;51.258;-2.200;2023-10-19T04:14:21;97478.27;;;16.28;60.55
82887;BME280;72660;51.258;-2.200;2023-10-19T04:16:45;97469.09;;;16.35;61.26
82887;BME280;72660;51.258;-2.200;2023-10-19T04:19:12;97464.56;;;16.20;60.36
82887;BME280;72660;51.258;-2.200;2023-10-19T04:21:42;97460.46;;;15.93;61.11
82887;BME280;72660;51.258;-2.200;2023-10-19T04:24:03;97460.12;;;16.22;60.29
82887;BME280;72660;51.258;-2.200;2023-10-19T04:26:26;97453.73;;;16.04;60.40
82887;BME280;72660;51.258;-2.200;2023-10-19T04:28:52;97457.97;;;15.95;59.52
82887;BME280;72660;51.258;-2.200;2023-10-19T04:31:18;97457.95;;;15.99;59.54
82887;BME280;72660;51.258;-2.200;2023-10-19T04:33:42;97453.60;;;15.79;59.80
82887;BME280;72660;51.258;-2.200;2023-10-19T04:36:08;97458.03;;;15.94;59.76
82887;BME280;72660;51.258;-2.200;2023-10-19T04:38:34;97456.18;;;15.96;59.35
82887;BME280;72660;51.258;-2.200;2023-10-19T04:41:06;97457.08;;;16.14;59.71
82887;BME280;72660;51.258;-2.200;2023-10-19T04:43:24;97455.68;;;15.96;59.94
82887;BME280;72660;51.258;-2.200;2023-10-19T04:45:49;97460.08;;;15.97;60.09
82887;BME280;72660;51.258;-2.200;2023-10-19T04:48:14;97455.84;;;15.51;61.08
82887;BME280;72660;51.258;-2.200;2023-10-19T04:50:39;97460.07;;;15.46;61.26
82887;BME280;72660;51.258;-2.200;2023-10-19T04:53:05;97458.84;;;15.53;60.98
82887;BME280;72660;51.258;-2.200;2023-10-19T04:55:30;97458.94;;;16.23;59.70
82887;BME280;72660;51.258;-2.200;2023-10-19T04:57:55;97455.38;;;15.71;60.17
82887;BME280;72660;51.258;-2.200;2023-10-19T05:00:21;97458.39;;;16.04;60.18
82887;BME280;72660;51.258;-2.200;2023-10-19T05:02:47;97452.33;;;15.63;61.08
82887;BME280;72660;51.258;-2.200;2023-10-19T05:05:12;97450.26;;;16.15;60.06
82887;BME280;72660;51.258;-2.200;2023-10-19T05:07:42;97450.31;;;15.17;61.83
82887;BME280;72660;51.258;-2.200;2023-10-19T05:10:03;97448.24;;;15.53;60.92
82887;BME280;72660;51.258;-2.200;2023-10-19T05:12:28;97453.98;;;15.75;61.27
82887;BME280;72660;51.258;-2.200;2023-10-19T05:14:53;97449.15;;;15.90;60.90
82887;BME280;72660;51.258;-2.200;2023-10-19T05:17:19;97444.89;;;16.41;60.12
82887;BME280;72660;51.258;-2.200;2023-10-19T05:19:44;97444.75;;;15.93;60.85
82887;BME280;72660;51.258;-2.200;2023-10-19T05:22:09;97445.10;;;16.01;59.97
82887;BME280;72660;51.258;-2.200;2023-10-19T05:24:35;97444.79;;;15.81;60.83
82887;BME280;72660;51.258;-2.200;2023-10-19T05:27:00;97447.62;;;15.96;60.11
82887;BME280;72660;51.258;-2.200;2023-10-19T05:29:25;97448.44;;;16.88;59.17
82887;BME280;72660;51.258;-2.200;2023-10-19T05:31:51;97445.89;;;16.45;58.99
82887;BME280;72660;51.258;-2.200;2023-10-19T05:34:16;97442.23;;;16.71;59.00
82887;BME280;72660;51.258;-2.200;2023-10-19T05:36:41;97446.49;;;16.80;58.36
82887;BME280;72660;51.258;-2.200;2023-10-19T05:39:07;97444.76;;;16.48;59.15
82887;BME280;72660;51.258;-2.200;2023-10-19T05:41:32;97436.59;;;16.78;58.46
82887;BME280;72660;51.258;-2.200;2023-10-19T05:43:57;97433.86;;;16.74;58.17
82887;BME280;72660;51.258;-2.200;2023-10-19T05:46:22;97428.82;;;17.05;57.99
82887;BME280;72660;51.258;-2.200;2023-10-19T05:48:48;97429.78;;;16.22;59.55
82887;BME280;72660;51.258;-2.200;2023-10-19T05:51:13;97423.25;;;16.32;59.57
82887;BME280;72660;51.258;-2.200;2023-10-19T05:53:38;97428.38;;;15.71;60.51
82887;BME280;72660;51.258;-2.200;2023-10-19T05:56:04;97433.02;;;16.22;59.51
82887;BME280;72660;51.258;-2.200;2023-10-19T05:58:29;97433.27;;;16.73;59.79
82887;BME280;72660;51.258;-2.200;2023-10-19T06:00:58;97433.89;;;16.68;59.38
82887;BME280;72660;51.258;-2.200;2023-10-19T06:03:20;97429.50;;;16.32;59.70
82887;BME280;72660;51.258;-2.200;2023-10-19T06:05:45;97428.82;;;15.59;61.36
82887;BME280;72660;51.258;-2.200;2023-10-19T06:08:10;97427.08;;;15.63;61.60
82887;BME280;72660;51.258;-2.200;2023-10-19T06:10:35;97431.89;;;16.45;60.37
82887;BME280;72660;51.258;-2.200;2023-10-19T06:13:01;97432.43;;;16.19;60.32
82887;BME280;72660;51.258;-2.200;2023-10-19T06:15:27;97425.22;;;16.22;60.11
82887;BME280;72660;51.258;-2.200;2023-10-19T06:17:52;97433.90;;;16.26;59.98
82887;BME280;72660;51.258;-2.200;2023-10-19T06:20:17;97436.68;;;15.98;61.08
82887;BME280;72660;51.258;-2.200;2023-10-19T06:22:42;97439.10;;;16.38;60.33
82887;BME280;72660;51.258;-2.200;2023-10-19T06:25:08;97435.61;;;16.16;60.75
82887;BME280;72660;51.258;-2.200;2023-10-19T06:27:33;97431.93;;;16.19;60.59
82887;BME280;72660;51.258;-2.200;2023-10-19T06:29:58;97438.04;;;15.99;60.02
82887;BME280;72660;51.258;-2.200;2023-10-19T06:32:24;97439.03;;;16.23;59.59
82887;BME280;72660;51.258;-2.200;2023-10-19T06:34:49;97439.51;;;16.55;59.48
82887;BME280;72660;51.258;-2.200;2023-10-19T06:37:14;97435.99;;;15.76;60.28
82887;BME280;72660;51.258;-2.200;2023-10-19T06:39:39;97445.05;;;15.68;61.10
82887;BME280;72660;51.258;-2.200;2023-10-19T06:42:05;97448.13;;;15.86;60.93
82887;BME280;72660;51.258;-2.200;2023-10-19T06:44:30;97448.89;;;15.71;60.00
82887;BME280;72660;51.258;-2.200;2023-10-19T06:46:55;97450.01;;;16.23;59.00
82887;BME280;72660;51.258;-2.200;2023-10-19T06:49:20;97450.47;;;16.15;58.61
82887;BME280;72660;51.258;-2.200;2023-10-19T06:51:45;97453.77;;;15.99;58.25
82887;BME280;72660;51.258;-2.200;2023-10-19T06:54:11;97461.69;;;15.71;58.66
82887;BME280;72660;51.258;-2.200;2023-10-19T06:56:36;97455.65;;;16.04;58.76
82887;BME280;72660;51.258;-2.200;2023-10-19T06:59:01;97460.53;;;16.28;57.94
82887;BME280;72660;51.258;-2.200;2023-10-19T07:01:27;97453.22;;;16.07;58.43
82887;BME280;72660;51.258;-2.200;2023-10-19T07:03:52;97450.77;;;15.59;59.85
82887;BME280;72660;51.258;-2.200;2023-10-19T07:06:17;97457.91;;;16.05;59.37
82887;BME280;72660;51.258;-2.200;2023-10-19T07:08:42;97453.72;;;16.65;58.30
82887;BME280;72660;51.258;-2.200;2023-10-19T07:11:08;97456.85;;;16.47;57.76
82887;BME280;72660;51.258;-2.200;2023-10-19T07:13:33;97461.26;;;17.04;56.65
82887;BME280;72660;51.258;-2.200;2023-10-19T07:15:58;97456.67;;;17.06;56.25
82887;BME280;72660;51.258;-2.200;2023-10-19T07:18:23;97454.24;;;17.30;55.84
82887;BME280;72660;51.258;-2.200;2023-10-19T07:20:49;97455.97;;;17.51;55.43
82887;BME280;72660;51.258;-2.200;2023-10-19T07:23:14;97450.63;;;17.71;54.87
82887;BME280;72660;51.258;-2.200;2023-10-19T07:25:39;97453.42;;;17.51;54.46
82887;BME280;72660;51.258;-2.200;2023-10-19T07:28:05;97455.04;;;17.86;54.51
82887;BME280;72660;51.258;-2.200;2023-10-19T07:30:30;97457.05;;;18.15;54.21
82887;BME280;72660;51.258;-2.200;2023-10-19T07:32:55;97458.90;;;17.73;54.72
82887;BME280;72660;51.258;-2.200;2023-10-19T07:35:21;97456.71;;;17.99;54.26
82887;BME280;72660;51.258;-2.200;2023-10-19T07:37:46;97459.23;;;18.10;54.47
82887;BME280;72660;51.258;-2.200;2023-10-19T07:40:11;97458.91;;;18.20;54.39
82887;BME280;72660;51.258;-2.200;2023-10-19T07:42:36;97455.29;;;18.45;54.03
82887;BME280;72660;51.258;-2.200;2023-10-19T07:45:03;97456.59;;;19.55;52.00
82887;BME280;72660;51.258;-2.200;2023-10-19T07:47:28;97455.58;;;20.64;50.21
82887;BME280;72660;51.258;-2.200;2023-10-19T07:49:53;97448.07;;;20.64;49.88
82887;BME280;72660;51.258;-2.200;2023-10-19T07:52:18;97449.99;;;20.82;49.56
82887;BME280;72660;51.258;-2.200;2023-10-19T07:54:44;97444.61;;;21.40;48.55
82887;BME280;72660;51.258;-2.200;2023-10-19T07:57:09;97446.27;;;20.64;49.28
82887;BME280;72660;51.258;-2.200;2023-10-19T07:59:35;97449.77;;;19.73;51.16
82887;BME280;72660;51.258;-2.200;2023-10-19T08:02:00;97451.01;;;18.34;53.70
82887;BME280;72660;51.258;-2.200;2023-10-19T08:04:26;97453.15;;;18.61;53.52
82887;BME280;72660;51.258;-2.200;2023-10-19T08:06:50;97450.84;;;18.52;53.69
82887;BME280;72660;51.258;-2.200;2023-10-19T08:09:16;97450.41;;;18.53;53.42
82887;BME280;72660;51.258;-2.200;2023-10-19T08:11:42;97448.96;;;18.84;53.68
82887;BME280;72660;51.258;-2.200;2023-10-19T08:14:07;97443.25;;;17.85;54.84
82887;BME280;72660;51.258;-2.200;2023-10-19T08:16:33;97443.16;;;18.02;54.26
82887;BME280;72660;51.258;-2.200;2023-10-19T08:18:59;97448.56;;;20.35;49.36
82887;BME280;72660;51.258;-2.200;2023-10-19T08:21:25;97448.09;;;21.59;47.38
82887;BME280;72660;51.258;-2.200;2023-10-19T08:23:50;97440.55;;;22.50;45.84
82887;BME280;72660;51.258;-2.200;2023-10-19T08:26:15;97439.39;;;21.62;46.03
82887;BME280;72660;51.258;-2.200;2023-10-19T08:28:40;97439.61;;;21.22;46.45
82887;BME280;72660;51.258;-2.200;2023-10-19T08:31:08;97432.57;;;21.61;46.83
82887;BME280;72660;51.258;-2.200;2023-10-19T08:33:31;97437.36;;;21.03;47.12
82887;BME280;72660;51.258;-2.200;2023-10-19T08:35:56;97436.69;;;21.57;46.87
82887;BME280;72660;51.258;-2.200;2023-10-19T08:38:21;97433.27;;;20.83;47.68
82887;BME280;72660;51.258;-2.200;2023-10-19T08:40:47;97432.92;;;20.59;48.56
82887;BME280;72660;51.258;-2.200;2023-10-19T08:43:12;97436.45;;;21.25;47.98
82887;BME280;72660;51.258;-2.200;2023-10-19T08:45:38;97437.88;;;21.54;47.85
82887;BME280;72660;51.258;-2.200;2023-10-19T08:48:04;97439.88;;;21.03;47.82
82887;BME280;72660;51.258;-2.200;2023-10-19T08:50:29;97438.55;;;21.08;47.86
82887;BME280;72660;51.258;-2.200;2023-10-19T08:52:58;97439.43;;;21.00;48.04
82887;BME280;72660;51.258;-2.200;2023-10-19T08:55:19;97437.22;;;21.21;47.79
82887;BME280;72660;51.258;-2.200;2023-10-19T08:57:44;97429.74;;;21.02;48.26
82887;BME280;72660;51.258;-2.200;2023-10-19T09:00:11;97429.84;;;20.67;48.94
82887;BME280;72660;51.258;-2.200;2023-10-19T09:02:35;97430.38;;;20.70;48.44
82887;BME280;72660;51.258;-2.200;2023-10-19T09:05:06;97430.06;;;20.45;49.23
82887;BME280;72660;51.258;-2.200;2023-10-19T09:07:25;97431.10;;;19.98;49.40
82887;BME280;72660;51.258;-2.200;2023-10-19T09:09:50;97436.97;;;20.22;49.87
82887;BME280;72660;51.258;-2.200;2023-10-19T09:12:16;97432.84;;;20.34;49.88
82887;BME280;72660;51.258;-2.200;2023-10-19T09:14:41;97434.77;;;20.28;49.18
82887;BME280;72660;51.258;-2.200;2023-10-19T09:17:07;97436.07;;;20.70;48.82
82887;BME280;72660;51.258;-2.200;2023-10-19T09:19:37;97436.96;;;19.51;50.18
82887;BME280;72660;51.258;-2.200;2023-10-19T09:21:58;97434.78;;;20.08;50.22
82887;BME280;72660;51.258;-2.200;2023-10-19T09:24:23;97435.57;;;19.85;50.09
82887;BME280;72660;51.258;-2.200;2023-10-19T09:26:49;97439.50;;;19.73;50.64
82887;BME280;72660;51.258;-2.200;2023-10-19T09:29:17;97436.73;;;19.86;50.67
82887;BME280;72660;51.258;-2.200;2023-10-19T09:31:39;97433.53;;;20.22;50.42
82887;BME280;72660;51.258;-2.200;2023-10-19T09:34:05;97431.94;;;20.74;50.31
82887;BME280;72660;51.258;-2.200;2023-10-19T09:36:30;97430.64;;;20.41;50.06
82887;BME280;72660;51.258;-2.200;2023-10-19T09:38:55;97428.78;;;19.70;51.07
82887;BME280;72660;51.258;-2.200;2023-10-19T09:41:21;97428.06;;;19.57;51.93
82887;BME280;72660;51.258;-2.200;2023-10-19T09:43:48;97426.66;;;19.38;51.77
82887;BME280;72660;51.258;-2.200;2023-10-19T09:46:15;97426.39;;;19.68;51.63
82887;BME280;72660;51.258;-2.200;2023-10-19T09:48:40;97426.73;;;19.00;52.54
82887;BME280;72660;51.258;-2.200;2023-10-19T09:51:03;97421.09;;;19.48;51.84
82887;BME280;72660;51.258;-2.200;2023-10-19T09:53:29;97418.86;;;19.91;51.74
82887;BME280;72660;51.258;-2.200;2023-10-19T09:55:56;97416.60;;;19.95;51.19
82887;BME280;72660;51.258;-2.200;2023-10-19T09:58:23;97416.14;;;20.38;50.58
82887;BME280;72660;51.258;-2.200;2023-10-19T10:00:45;97414.91;;;19.41;51.83
82887;BME280;72660;51.258;-2.200;2023-10-19T10:05:45;97420.69;;;20.19;51.41
82887;BME280;72660;51.258;-2.200;2023-10-19T10:10:25;97425.33;;;19.60;51.77
82887;BME280;72660;51.258;-2.200;2023-10-19T10:12:51;97430.37;;;18.98;52.30
82887;BME280;72660;51.258;-2.200;2023-10-19T10:15:16;97425.79;;;19.60;52.05
82887;BME280;72660;51.258;-2.200;2023-10-19T10:17:41;97425.34;;;19.95;51.40
82887;BME280;72660;51.258;-2.200;2023-10-19T10:22:32;97424.49;;;19.88;51.19
82887;BME280;72660;51.258;-2.200;2023-10-19T10:24:57;97418.30;;;20.06;50.49
82887;BME280;72660;51.258;-2.200;2023-10-19T10:27:23;97417.08;;;20.31;50.51
82887;BME280;72660;51.258;-2.200;2023-10-19T10:29:55;97412.99;;;20.11;50.16
82887;BME280;72660;51.258;-2.200;2023-10-19T10:34:42;97411.57;;;20.57;49.31
82887;BME280;72660;51.258;-2.200;2023-10-19T10:37:04;97411.64;;;20.18;50.11
82887;BME280;72660;51.258;-2.200;2023-10-19T10:39:29;97412.09;;;19.13;51.59
82887;BME280;72660;51.258;-2.200;2023-10-19T10:41:57;97405.75;;;19.68;51.38
82887;BME280;72660;51.258;-2.200;2023-10-19T10:44:19;97408.17;;;20.08;51.09
82887;BME280;72660;51.258;-2.200;2023-10-19T10:46:45;97408.25;;;21.10;49.56
82887;BME280;72660;51.258;-2.200;2023-10-19T10:49:11;97410.84;;;20.87;48.94
82887;BME280;72660;51.258;-2.200;2023-10-19T10:51:39;97414.92;;;21.81;48.09
82887;BME280;72660;51.258;-2.200;2023-10-19T10:54:05;97403.37;;;21.28;49.41
82887;BME280;72660;51.258;-2.200;2023-10-19T10:56:27;97401.98;;;20.21;50.48
82887;BME280;72660;51.258;-2.200;2023-10-19T10:58:52;97398.86;;;20.04;51.34
82887;BME280;72660;51.258;-2.200;2023-10-19T11:01:28;97405.70;;;19.75;51.59
82887;BME280;72660;51.258;-2.200;2023-10-19T11:03:43;97407.69;;;19.91;51.38
82887;BME280;72660;51.258;-2.200;2023-10-19T11:06:10;97399.52;;;19.78;52.14
82887;BME280;72660;51.258;-2.200;2023-10-19T11:08:34;97406.39;;;19.42;52.21
82887;BME280;72660;51.258;-2.200;2023-10-19T11:11:03;97399.35;;;20.23;51.15
82887;BME280;72660;51.258;-2.200;2023-10-19T11:13:24;97396.36;;;20.36;50.42
82887;BME280;72660;51.258;-2.200;2023-10-19T11:15:50;97399.05;;;21.27;49.56
82887;BME280;72660;51.258;-2.200;2023-10-19T11:18:28;97396.15;;;20.79;49.76
82887;BME280;72660;51.258;-2.200;2023-10-19T11:20:40;97398.53;;;21.47;48.78
82887;BME280;72660;51.258;-2.200;2023-10-19T11:23:05;97391.96;;;20.93;49.13
82887;BME280;72660;51.258;-2.200;2023-10-19T11:25:30;97384.97;;;20.88;49.07
82887;BME280;72660;51.258;-2.200;2023-10-19T11:27:56;97378.56;;;20.53;49.34
82887;BME280;72660;51.258;-2.200;2023-10-19T11:30:26;97373.98;;;21.46;48.33
82887;BME280;72660;51.258;-2.200;2023-10-19T11:32:46;97370.69;;;20.98;48.82
82887;BME280;72660;51.258;-2.200;2023-10-19T11:35:11;97362.97;;;21.11;49.68
82887;BME280;72660;51.258;-2.200;2023-10-19T11:37:45;97365.54;;;21.07;49.27
82887;BME280;72660;51.258;-2.200;2023-10-19T11:40:02;97361.93;;;20.77;50.09
82887;BME280;72660;51.258;-2.200;2023-10-19T11:42:27;97364.31;;;20.95;50.52
82887;BME280;72660;51.258;-2.200;2023-10-19T11:44:52;97358.25;;;19.93;51.59
82887;BME280;72660;51.258;-2.200;2023-10-19T11:47:17;97352.36;;;19.98;51.77
82887;BME280;72660;51.258;-2.200;2023-10-19T11:49:43;97356.71;;;20.55;50.58
82887;BME280;72660;51.258;-2.200;2023-10-19T11:52:08;97353.46;;;20.91;50.47
82887;BME280;72660;51.258;-2.200;2023-10-19T11:54:33;97357.92;;;21.35;49.83
82887;BME280;72660;51.258;-2.200;2023-10-19T11:56:58;97351.38;;;20.54;50.82
82887;BME280;72660;51.258;-2.200;2023-10-19T11:59:24;97351.82;;;20.59;50.92
82887;BME280;72660;51.258;-2.200;2023-10-19T12:01:49;97345.12;;;20.87;50.39
82887;BME280;72660;51.258;-2.200;2023-10-19T12:04:14;97343.80;;;21.20;49.52
82887;BME280;72660;51.258;-2.200;2023-10-19T12:06:39;97337.52;;;19.73;51.33
82887;BME280;72660;51.258;-2.200;2023-10-19T12:09:05;97336.02;;;20.58;50.81
82887;BME280;72660;51.258;-2.200;2023-10-19T12:11:30;97335.02;;;21.12;50.23
82887;BME280;72660;51.258;-2.200;2023-10-19T12:13:55;97337.57;;;20.69;50.20
82887;BME280;72660;51.258;-2.200;2023-10-19T12:16:21;97328.00;;;21.67;48.86
82887;BME280;72660;51.258;-2.200;2023-10-19T12:18:46;97328.19;;;20.76;49.47
82887;BME280;72660;51.258;-2.200;2023-10-19T12:21:11;97320.95;;;20.73;49.88
82887;BME280;72660;51.258;-2.200;2023-10-19T12:23:38;97323.44;;;20.86;49.74
82887;BME280;72660;51.258;-2.200;2023-10-19T12:26:02;97317.70;;;21.17;49.97
82887;BME280;72660;51.258;-2.200;2023-10-19T12:28:27;97308.79;;;20.44;49.91
82887;BME280;72660;51.258;-2.200;2023-10-19T12:30:52;97309.60;;;20.34;51.17
82887;BME280;72660;51.258;-2.200;2023-10-19T12:33:17;97307.18;;;20.83;49.85
82887;BME280;72660;51.258;-2.200;2023-10-19T12:35:43;97311.22;;;20.83;49.94
82887;BME280;72660;51.258;-2.200;2023-10-19T12:38:08;97304.69;;;21.28;49.45
82887;BME280;72660;51.258;-2.200;2023-10-19T12:40:33;97310.30;;;21.66;48.65
82887;BME280;72660;51.258;-2.200;2023-10-19T12:42:58;97307.98;;;21.59;49.16
82887;BME280;72660;51.258;-2.200;2023-10-19T12:45:24;97314.18;;;20.89;49.70
82887;BME280;72660;51.258;-2.200;2023-10-19T12:47:49;97304.36;;;20.31;49.80